01 Dec 2020 05:34 UTC 2020336+05:34 UTC

Overview Datums Bench Marks Data Query Site Visit Daily QC Messages Attributes

171: National Park Service - Bird Island

27° 29' 4" N   97° 19' 5" W
NPSBI
United States National Park Service United States National Park Service

Station Information

National Park Service - Bird Island
National Park Service - Bird Island
more pictures
 
Station Name:National Park Service - Bird Island
DNR ID:171
Location:27° 29' 4" N, 97° 19' 5" W

Water Level Forecasts

Latest Observations

Series Metric English Marine Observed at
Water Temperature 15.3 °C 59.5 °F 59.5 °F Nov 30 23:12 CST
00h12m ago
Salinity 36.900 psu 36.900 psu 36.900 psu Nov 30 23:12 CST
00h12m ago
Turbidity 1179 ntu 1179 ntu 1179 ntu Nov 30 23:12 CST
00h12m ago
Dissolved Oxygen 7.70 mg/L 0.000481 lb/ft3 0.000481 lb/ft3 Nov 30 23:12 CST
00h12m ago

Maps

National Park Service - Bird Island
All Stations in Area
Entire Network
 

Recent Observations

Date/Time Water
Temp (°F)
Sal (psu) pH (pH) Turb (ntu) DO (lb/ft3)
Nov 30 23:00 CST 59.5 36.800 1180 0.000486
Nov 30 22:00 CST 60.1 36.500 1183 0.000496
Nov 30 21:00 CST 60.3 36.500 1183 0.000506
Nov 30 20:00 CST 60.8 36.400 1185 0.000508
Nov 30 19:00 CST 61.3 36.200 1188 0.000514
Nov 30 18:00 CST 61.9 36.300 1191 0.000501
Nov 30 17:00 CST 62.4 36.000 1194 0.000513
Nov 30 16:00 CST 63.0 35.900 1196 0.000516
Nov 30 15:00 CST 63.0 35.900 1197 0.000510
Nov 30 14:00 CST 62.6 36.000 1195 0.000518
Nov 30 13:00 CST 62.2 35.800 1193 0.000491
Nov 30 12:00 CST 62.1 35.800 1192 0.000489
Nov 30 11:00 CST 60.8 36.700 1185 0.000477
Nov 30 10:00 CST 61.5 35.400 1189 0.000478
Nov 30 09:00 CST 62.1 35.400 1192 0.000463
Nov 30 08:00 CST 63.1 35.400 1197 0.000449
Nov 30 07:00 CST 63.9 35.600 1201 0.000440
Nov 30 06:00 CST 64.6 35.800 1204 0.000434
Nov 30 05:00 CST 65.7 35.800 1210 0.000436
Nov 30 04:00 CST 65.7 36.000 1210 0.000434
Nov 30 03:00 CST 66.0 36.100 1211 0.000433
Nov 30 02:00 CST 65.7 35.900 1210 0.000438
Nov 30 01:00 CST 66.6 36.100 1214 0.000436
Nov 30 00:00 CST 66.7 36.100 1215 0.000443
Nov 29 23:00 CST 66.9 36.500 1217 0.000455

Historical Data Availability